Kilgetty, United Kingdom
Current Conditions -  °F | °C
As of 12:50 AM on Friday 28 Nov 2014 (Local Time) from EGOP Reporting Station
Few Clouds Few Clouds  
Wind Chill: 50°   Ceiling: Unl
Heat Index: 50°   Visibility: 6mi
Dew Point: 46°   Wind: 10mph
Humidity: 87%   Direction: 100°E
Pressure: 29.44"   Gusts: NA
Location:  51.73°N, 4.76°W
Report Text: EGOP 280050Z AUTO 10009KT 9999 // FEW016/// 10/08 Q0997
Loading
Personal Weather Stations






























Interactive Weather Map New forecast layout! Learn more

10-Day Weather Forecast

Advertisements
Track Severe Weather on mobile